createdAt,value
2018-03-22T00:00:37.389Z,116.75
2018-03-22T00:03:04.008Z,95.00
2018-03-22T00:05:30.674Z,157.32
2018-03-22T00:07:57.952Z,128.60
2018-03-22T00:10:24.568Z,106.70
2018-03-22T00:12:51.170Z,107.05
2018-03-22T00:15:17.820Z,100.22
2018-03-22T00:17:44.395Z,114.28
2018-03-22T00:20:11.006Z,150.57
2018-03-22T00:22:37.687Z,122.32
2018-03-22T00:25:04.307Z,125.43
2018-03-22T00:27:30.957Z,116.78
2018-03-22T00:29:57.605Z,127.62
2018-03-22T00:32:24.225Z,112.57
2018-03-22T00:34:50.844Z,99.62
2018-03-22T00:37:17.452Z,90.75
2018-03-22T00:39:44.058Z,103.70
2018-03-22T00:42:10.679Z,87.57
2018-03-22T00:44:37.279Z,80.75
2018-03-22T00:47:03.900Z,107.97
2018-03-22T00:49:30.521Z,91.18
2018-03-22T00:51:57.131Z,114.28
2018-03-22T00:54:23.738Z,98.53
2018-03-22T00:56:50.342Z,102.20
2018-03-22T00:59:16.954Z,98.37
2018-03-22T01:01:43.562Z,99.97
2018-03-22T01:04:10.179Z,119.13
2018-03-22T01:06:36.901Z,97.28
2018-03-22T01:09:03.519Z,94.72
2018-03-22T01:11:30.118Z,98.18
2018-03-22T01:13:56.722Z,82.60
2018-03-22T01:16:23.327Z,102.40
2018-03-22T01:18:49.937Z,63.08
2018-03-22T01:21:16.608Z,65.30
2018-03-22T01:23:43.216Z,81.80
2018-03-22T01:26:09.805Z,93.20
2018-03-22T01:28:36.524Z,67.45
2018-03-22T01:31:03.130Z,96.37
2018-03-22T01:33:29.722Z,79.87
2018-03-22T01:35:56.349Z,126.50
2018-03-22T01:38:22.958Z,102.47
2018-03-22T01:40:49.550Z,83.25
2018-03-22T01:43:16.496Z,87.20
2018-03-22T01:45:43.081Z,63.38
2018-03-22T01:48:09.678Z,88.85
2018-03-22T01:50:36.282Z,88.50
2018-03-22T01:53:08.769Z,72.37
2018-03-22T01:55:35.367Z,79.57
2018-03-22T01:58:01.967Z,77.45
2018-03-22T02:00:28.568Z,81.95
2018-03-22T02:02:55.161Z,79.50
2018-03-22T02:05:21.769Z,91.50
2018-03-22T02:07:48.378Z,121.35
2018-03-22T02:10:14.990Z,103.30
2018-03-22T02:12:41.590Z,82.82
2018-03-22T02:15:08.207Z,120.18
2018-03-22T02:17:34.802Z,86.72
2018-03-22T02:20:01.408Z,63.22
2018-03-22T02:22:28.006Z,82.30
2018-03-22T02:24:54.624Z,86.10
2018-03-22T02:27:21.221Z,75.43
2018-03-22T02:29:47.826Z,83.87
2018-03-22T02:32:14.434Z,64.18
2018-03-22T02:34:41.028Z,64.57
2018-03-22T02:37:07.640Z,59.75
2018-03-22T02:39:34.248Z,72.45
2018-03-22T02:42:00.839Z,48.40
2018-03-22T02:44:27.435Z,58.20
2018-03-22T02:46:54.047Z,51.58
2018-03-22T02:49:20.660Z,49.05
2018-03-22T02:51:47.277Z,61.55
2018-03-22T02:54:13.880Z,55.10
2018-03-22T02:56:40.478Z,48.00
2018-03-22T02:59:07.070Z,54.05
2018-03-22T03:01:33.678Z,51.55
2018-03-22T03:04:00.288Z,49.88
2018-03-22T03:06:26.897Z,68.32
2018-03-22T03:08:53.507Z,117.35
2018-03-22T03:11:20.111Z,70.03
2018-03-22T03:13:46.720Z,60.15
2018-03-22T03:16:13.327Z,74.22
2018-03-22T03:18:39.932Z,70.60
2018-03-22T03:21:06.544Z,78.25
2018-03-22T03:23:33.136Z,81.03
2018-03-22T03:25:59.750Z,75.20
2018-03-22T03:28:26.346Z,62.20
2018-03-22T03:30:52.964Z,67.85
2018-03-22T03:33:19.558Z,80.70
2018-03-22T03:35:46.172Z,74.47
2018-03-22T03:38:12.765Z,73.55
2018-03-22T03:40:39.375Z,69.75
2018-03-22T03:43:05.982Z,77.00
2018-03-22T03:45:32.599Z,78.78
2018-03-22T03:47:59.208Z,75.12
2018-03-22T03:50:25.816Z,73.57
2018-03-22T03:52:52.405Z,86.90
2018-03-22T03:55:19.025Z,71.50
2018-03-22T03:57:45.636Z,79.93
2018-03-22T04:00:12.248Z,45.92
2018-03-22T04:02:38.860Z,47.90
2018-03-22T04:05:05.473Z,62.08
2018-03-22T04:07:32.080Z,56.03
2018-03-22T04:09:58.702Z,66.55
2018-03-22T04:12:25.311Z,80.82
2018-03-22T04:14:51.918Z,89.82
2018-03-22T04:17:18.514Z,73.90
2018-03-22T04:19:45.111Z,78.25
2018-03-22T04:22:11.715Z,109.35
2018-03-22T04:24:38.324Z,95.12
2018-03-22T04:27:04.924Z,91.18
2018-03-22T04:29:31.524Z,109.78
2018-03-22T04:31:58.151Z,98.85
2018-03-22T04:34:24.745Z,90.93
2018-03-22T04:36:51.348Z,78.40
2018-03-22T04:39:17.956Z,80.97
2018-03-22T04:41:44.572Z,59.58
2018-03-22T04:44:11.188Z,84.50
2018-03-22T04:46:37.787Z,62.08
2018-03-22T04:49:04.388Z,94.10
2018-03-22T04:51:30.989Z,85.87
2018-03-22T04:53:57.599Z,91.07
2018-03-22T04:56:24.200Z,77.60
2018-03-22T04:58:50.803Z,89.22
2018-03-22T05:01:18.282Z,73.12
2018-03-22T05:03:44.873Z,68.22
2018-03-22T05:06:11.475Z,86.15
2018-03-22T05:08:38.092Z,105.47
2018-03-22T05:11:04.938Z,80.38
2018-03-22T05:13:31.558Z,83.32
2018-03-22T05:15:58.157Z,82.60
2018-03-22T05:18:24.764Z,83.15
2018-03-22T05:20:51.381Z,115.70
2018-03-22T05:23:17.986Z,102.87
2018-03-22T05:25:44.591Z,90.03
2018-03-22T05:28:11.181Z,69.43
2018-03-22T05:30:37.785Z,84.00
2018-03-22T05:33:04.380Z,68.53
2018-03-22T05:35:30.977Z,75.57
2018-03-22T05:37:57.588Z,77.95
2018-03-22T05:40:24.197Z,66.05
2018-03-22T05:42:50.794Z,82.72
2018-03-22T05:45:17.398Z,55.10
2018-03-22T05:47:43.990Z,78.93
2018-03-22T05:50:10.605Z,81.75
2018-03-22T05:52:37.207Z,104.35
2018-03-22T05:55:03.798Z,75.68
2018-03-22T05:57:30.409Z,134.37
2018-03-22T05:59:57.493Z,99.60
2018-03-22T06:02:24.094Z,74.82
2018-03-22T06:04:50.694Z,51.17
2018-03-22T06:07:17.672Z,57.33
2018-03-22T06:09:44.883Z,68.37
2018-03-22T06:12:11.488Z,81.03
2018-03-22T06:14:38.100Z,73.15
2018-03-22T06:17:04.738Z,70.57
2018-03-22T06:19:31.342Z,74.97
2018-03-22T06:21:57.938Z,49.50
2018-03-22T06:24:24.558Z,53.58
2018-03-22T06:26:51.168Z,64.75
2018-03-22T06:29:17.785Z,79.03
2018-03-22T06:31:44.400Z,57.83
2018-03-22T06:34:11.007Z,56.63
2018-03-22T06:36:37.618Z,55.88
2018-03-22T06:39:04.226Z,74.03
2018-03-22T06:41:30.900Z,69.95
2018-03-22T06:43:57.486Z,57.58
2018-03-22T06:46:24.100Z,75.15
2018-03-22T06:48:50.703Z,46.00
2018-03-22T06:51:18.100Z,49.70
2018-03-22T06:53:44.712Z,39.22
2018-03-22T06:56:11.324Z,50.00
2018-03-22T06:58:38.390Z,51.72
2018-03-22T07:01:04.984Z,68.35
2018-03-22T07:03:31.577Z,59.33
2018-03-22T07:05:58.176Z,59.40
2018-03-22T07:08:24.786Z,64.45
2018-03-22T07:10:51.396Z,75.55
2018-03-22T07:13:17.993Z,46.67
2018-03-22T07:15:44.585Z,63.87
2018-03-22T07:18:11.196Z,55.65
2018-03-22T07:20:37.791Z,46.78
2018-03-22T07:23:05.326Z,60.25
2018-03-22T07:25:31.984Z,55.47
2018-03-22T07:27:58.587Z,56.97
2018-03-22T07:30:25.209Z,52.83
2018-03-22T07:32:51.842Z,42.67
2018-03-22T07:35:18.444Z,40.47
2018-03-22T07:37:45.117Z,45.00
2018-03-22T07:40:11.720Z,54.13
2018-03-22T07:42:38.327Z,57.05
2018-03-22T07:45:09.746Z,54.78
2018-03-22T07:47:36.330Z,47.55
2018-03-22T07:50:02.933Z,71.37
2018-03-22T07:52:29.526Z,48.65
2018-03-22T07:54:56.420Z,93.68
2018-03-22T07:57:23.012Z,65.10
2018-03-22T07:59:49.612Z,69.90
2018-03-22T08:02:16.576Z,62.03
2018-03-22T08:04:43.187Z,50.50
2018-03-22T08:07:09.783Z,59.00
2018-03-22T08:09:36.393Z,57.70
2018-03-22T08:12:02.985Z,44.47
2018-03-22T08:14:29.664Z,38.72
2018-03-22T08:16:56.286Z,44.10
2018-03-22T08:19:22.885Z,52.90
2018-03-22T08:21:49.512Z,67.70
2018-03-22T08:24:16.107Z,62.35
2018-03-22T08:26:42.752Z,51.40
2018-03-22T08:29:09.363Z,32.92
2018-03-22T08:31:35.980Z,39.95
2018-03-22T08:34:02.574Z,43.58
2018-03-22T08:36:29.183Z,68.75
2018-03-22T08:38:55.784Z,48.05
2018-03-22T08:41:22.408Z,52.83
2018-03-22T08:43:49.004Z,41.60
2018-03-22T08:46:15.602Z,41.33
2018-03-22T08:48:42.240Z,75.10
2018-03-22T08:51:08.873Z,58.83
2018-03-22T08:53:35.542Z,42.80
2018-03-22T08:56:02.152Z,46.08
2018-03-22T08:58:28.764Z,49.95
2018-03-22T09:00:55.358Z,49.83
2018-03-22T09:03:22.668Z,35.28
2018-03-22T09:05:49.264Z,35.35
2018-03-22T09:08:15.876Z,50.97
2018-03-22T09:10:42.466Z,39.72
2018-03-22T09:13:09.416Z,40.22
2018-03-22T09:15:36.023Z,31.05
2018-03-22T09:18:02.635Z,46.58
2018-03-22T09:20:29.248Z,21.17
2018-03-22T09:22:55.854Z,24.25
2018-03-22T09:25:22.485Z,19.20
2018-03-22T09:27:49.139Z,22.92
2018-03-22T09:30:15.755Z,25.88
2018-03-22T09:32:42.326Z,22.13
2018-03-22T09:35:08.936Z,22.15
2018-03-22T09:37:35.546Z,19.98
2018-03-22T09:40:03.013Z,18.37
2018-03-22T09:42:29.627Z,14.25
2018-03-22T09:44:56.241Z,14.38
2018-03-22T09:47:23.385Z,15.15
2018-03-22T09:49:50.006Z,11.50
2018-03-22T09:52:16.606Z,11.40
2018-03-22T09:54:43.218Z,19.70
2018-03-22T09:57:09.825Z,15.80
2018-03-22T09:59:36.496Z,14.35
2018-03-22T10:02:03.113Z,18.15
2018-03-22T10:04:29.720Z,12.37
2018-03-22T10:06:56.336Z,11.12
2018-03-22T10:09:22.960Z,11.12
2018-03-22T10:11:49.653Z,11.32
2018-03-22T10:14:16.278Z,12.18
2018-03-22T10:16:42.858Z,11.93
2018-03-22T10:19:09.478Z,12.05
2018-03-22T10:21:38.128Z,12.55
2018-03-22T10:24:04.691Z,13.50
2018-03-22T10:26:31.312Z,10.15
2018-03-22T10:28:57.932Z,11.75
2018-03-22T10:31:24.548Z,10.77
2018-03-22T10:33:51.772Z,12.27
2018-03-22T10:36:18.382Z,11.10
2018-03-22T10:38:45.586Z,13.62
2018-03-22T10:41:12.193Z,8.75
2018-03-22T10:43:38.806Z,11.12
2018-03-22T10:46:05.684Z,12.18
2018-03-22T10:48:32.292Z,9.60
2018-03-22T10:50:58.916Z,13.00
2018-03-22T10:53:25.509Z,9.80
2018-03-22T10:55:52.118Z,11.07
2018-03-22T10:58:18.741Z,14.30
2018-03-22T11:00:51.213Z,11.63
2018-03-22T11:03:23.478Z,9.50
2018-03-22T11:05:50.106Z,14.80
2018-03-22T11:08:16.907Z,11.68
2018-03-22T11:10:43.512Z,8.77
2018-03-22T11:13:10.148Z,11.05
2018-03-22T11:15:37.063Z,9.07
2018-03-22T11:18:03.662Z,7.12
2018-03-22T11:20:30.269Z,7.68
2018-03-22T11:22:57.474Z,12.18
2018-03-22T11:25:24.096Z,7.37
2018-03-22T11:27:50.700Z,7.82
2018-03-22T11:30:17.304Z,7.93
2018-03-22T11:32:43.912Z,6.85
2018-03-22T11:35:10.511Z,7.20
2018-03-22T11:37:37.561Z,7.32
2018-03-22T11:40:04.157Z,5.35
2018-03-22T11:42:30.745Z,7.30
2018-03-22T11:44:58.244Z,6.78
2018-03-22T11:47:24.838Z,6.53
2018-03-22T11:49:51.456Z,5.93
2018-03-22T11:52:18.061Z,6.05
2018-03-22T11:54:44.705Z,7.12
2018-03-22T11:57:11.312Z,7.72
2018-03-22T11:59:37.901Z,8.07
2018-03-22T12:05:34.374Z,9.55
2018-03-22T12:08:00.988Z,9.57
2018-03-22T12:10:27.601Z,7.95
2018-03-22T12:12:54.197Z,7.87
2018-03-22T12:15:22.834Z,10.52
2018-03-22T12:17:49.418Z,7.35
2018-03-22T12:20:16.031Z,7.15
2018-03-22T12:22:42.638Z,9.02
2018-03-22T12:25:09.242Z,8.00
2018-03-22T12:27:35.857Z,6.15
2018-03-22T12:30:02.470Z,7.95
2018-03-22T12:32:29.062Z,6.62
2018-03-22T12:34:55.668Z,4.78
2018-03-22T12:37:22.278Z,5.68
2018-03-22T12:39:48.864Z,7.47
2018-03-22T12:42:15.460Z,6.95
2018-03-22T12:44:42.849Z,6.05
2018-03-22T12:47:09.442Z,5.15
2018-03-22T12:49:36.386Z,6.70
2018-03-22T12:52:02.957Z,7.70
2018-03-22T12:54:29.560Z,5.62
2018-03-22T12:56:56.691Z,7.22
2018-03-22T12:59:23.284Z,5.93
2018-03-22T13:01:49.906Z,4.85
2018-03-22T13:04:17.112Z,5.72
2018-03-22T13:06:43.701Z,4.95
2018-03-22T13:09:10.298Z,6.85
2018-03-22T13:11:37.342Z,8.05
2018-03-22T13:14:04.746Z,4.30
2018-03-22T13:16:31.339Z,8.55
2018-03-22T13:18:57.961Z,5.70
2018-03-22T13:21:24.572Z,5.07
2018-03-22T13:23:51.178Z,6.18
2018-03-22T13:26:17.774Z,5.55
2018-03-22T13:28:44.370Z,5.03
2018-03-22T13:31:10.974Z,5.07
2018-03-22T13:33:38.332Z,5.70
2018-03-22T13:36:12.779Z,4.97
2018-03-22T13:38:39.396Z,6.82
2018-03-22T13:41:05.982Z,5.97
2018-03-22T13:43:32.597Z,5.87
2018-03-22T13:45:59.334Z,6.22
2018-03-22T13:48:25.855Z,4.78
2018-03-22T13:50:52.458Z,4.80
2018-03-22T13:53:19.068Z,6.97
2018-03-22T13:55:45.654Z,7.72
2018-03-22T13:58:12.275Z,4.20
2018-03-22T14:00:38.870Z,6.07
2018-03-22T14:03:05.472Z,6.78
2018-03-22T14:05:32.202Z,5.95
2018-03-22T14:07:59.428Z,6.15
2018-03-22T14:10:26.040Z,6.60
2018-03-22T14:12:52.653Z,5.00
2018-03-22T14:15:19.231Z,5.18
2018-03-22T14:17:46.623Z,4.10
2018-03-22T14:20:13.206Z,4.35
2018-03-22T14:22:39.811Z,5.50
2018-03-22T14:25:06.429Z,6.12
2018-03-22T14:27:33.020Z,4.85
2018-03-22T14:29:59.614Z,4.93
2018-03-22T14:32:26.217Z,4.78
2018-03-22T14:34:52.806Z,5.25
2018-03-22T14:37:19.409Z,3.90
2018-03-22T14:39:46.104Z,4.78
2018-03-22T14:42:12.738Z,3.85
2018-03-22T14:44:39.344Z,2.80
2018-03-22T14:47:05.952Z,4.32
2018-03-22T14:49:32.541Z,4.15
2018-03-22T14:51:59.904Z,4.15
2018-03-22T14:54:26.489Z,4.65
2018-03-22T14:56:53.682Z,3.72
2018-03-22T14:59:20.296Z,2.47
2018-03-22T15:01:47.128Z,3.62
2018-03-22T15:04:13.698Z,4.97
2018-03-22T15:06:40.298Z,4.05
2018-03-22T15:09:07.383Z,4.57
2018-03-22T15:11:33.974Z,4.30
2018-03-22T15:14:00.554Z,3.65
2018-03-22T15:16:27.146Z,3.95
2018-03-22T15:18:53.748Z,5.40
2018-03-22T15:21:20.438Z,5.90
2018-03-22T15:23:47.022Z,4.80
2018-03-22T15:26:13.631Z,6.62
2018-03-22T15:28:40.232Z,5.32
2018-03-22T15:31:06.864Z,4.05
2018-03-22T15:33:33.455Z,3.83
2018-03-22T15:36:00.092Z,4.32
2018-03-22T15:38:26.682Z,4.00
2018-03-22T15:40:53.262Z,3.72
2018-03-22T15:43:20.184Z,6.97
2018-03-22T15:45:46.801Z,6.03
2018-03-22T15:48:13.404Z,6.50
2018-03-22T15:50:40.008Z,5.37
2018-03-22T15:53:06.609Z,7.70
2018-03-22T15:55:33.194Z,8.27
2018-03-22T15:57:59.806Z,10.77
2018-03-22T16:00:26.403Z,8.23
2018-03-22T16:02:53.004Z,9.70
2018-03-22T16:05:19.608Z,7.20
2018-03-22T16:07:46.210Z,10.05
2018-03-22T16:10:12.814Z,9.95
2018-03-22T16:12:39.412Z,8.48
2018-03-22T16:15:06.014Z,7.40
2018-03-22T16:17:32.645Z,7.25
2018-03-22T16:19:59.240Z,7.95
2018-03-22T16:22:25.853Z,9.55
2018-03-22T16:24:52.462Z,10.40
2018-03-22T16:27:19.076Z,8.50
2018-03-22T16:29:45.688Z,8.43
2018-03-22T16:32:12.295Z,9.80
2018-03-22T16:34:38.892Z,8.70
2018-03-22T16:37:05.485Z,9.10
2018-03-22T16:39:32.078Z,9.70
2018-03-22T16:41:58.669Z,8.55
2018-03-22T16:44:25.301Z,10.80
2018-03-22T16:46:51.886Z,11.77
2018-03-22T16:49:18.500Z,8.50
2018-03-22T16:51:45.100Z,11.63
2018-03-22T16:54:11.704Z,10.00
2018-03-22T16:56:38.315Z,14.65
2018-03-22T16:59:04.920Z,8.77
2018-03-22T17:01:31.515Z,9.35
2018-03-22T17:03:58.143Z,10.77
2018-03-22T17:06:24.754Z,13.65
2018-03-22T17:08:51.342Z,10.45
2018-03-22T17:11:17.961Z,16.30
2018-03-22T17:13:44.564Z,17.55
2018-03-22T17:16:11.201Z,11.80
2018-03-22T17:18:37.850Z,17.15
2018-03-22T17:21:04.447Z,17.40
2018-03-22T17:23:31.062Z,16.92
2018-03-22T17:25:57.669Z,17.15
2018-03-22T17:28:24.275Z,15.18
2018-03-22T17:30:50.890Z,12.63
2018-03-22T17:33:17.588Z,14.15
2018-03-22T17:35:44.259Z,13.20
2018-03-22T17:38:10.845Z,16.23
2018-03-22T17:40:38.305Z,15.30
2018-03-22T17:43:04.923Z,18.52
2018-03-22T17:45:31.526Z,15.35
2018-03-22T17:47:58.140Z,15.05
2018-03-22T17:50:24.754Z,22.60
2018-03-22T17:52:51.367Z,27.70
2018-03-22T17:55:17.962Z,22.67
2018-03-22T17:57:44.578Z,15.82
2018-03-22T18:00:11.159Z,16.98
2018-03-22T18:02:37.768Z,30.88
2018-03-22T18:05:04.381Z,25.75
2018-03-22T18:07:31.017Z,31.08
2018-03-22T18:09:57.628Z,39.90
2018-03-22T18:12:24.240Z,36.72
2018-03-22T18:14:50.848Z,19.23
2018-03-22T18:17:17.462Z,16.85
2018-03-22T18:19:44.082Z,26.50
2018-03-22T18:22:10.673Z,18.73
2018-03-22T18:24:37.280Z,28.27
2018-03-22T18:27:03.877Z,26.00
2018-03-22T18:29:30.470Z,27.73
2018-03-22T18:31:57.138Z,26.95
2018-03-22T18:34:23.739Z,33.67
2018-03-22T18:36:50.346Z,26.02
2018-03-22T18:39:17.373Z,33.38
2018-03-22T18:41:43.968Z,23.85
2018-03-22T18:44:10.573Z,24.08
2018-03-22T18:46:38.008Z,28.70
2018-03-22T18:49:04.662Z,22.40
2018-03-22T18:51:31.268Z,35.83
2018-03-22T18:53:58.414Z,22.27
2018-03-22T18:56:25.030Z,24.70
2018-03-22T18:58:51.632Z,21.45
2018-03-22T19:01:18.256Z,20.55
2018-03-22T19:03:44.962Z,23.40
2018-03-22T19:06:11.554Z,20.62
2018-03-22T19:08:38.172Z,19.80
2018-03-22T19:11:04.922Z,19.85
2018-03-22T19:13:31.624Z,24.30
2018-03-22T19:15:58.214Z,21.02
2018-03-22T19:18:24.831Z,22.55
2018-03-22T19:20:51.428Z,34.03
2018-03-22T19:23:18.042Z,24.52
2018-03-22T19:25:44.645Z,22.87
2018-03-22T19:28:11.252Z,19.52
2018-03-22T19:30:37.851Z,20.50
2018-03-22T19:33:04.446Z,22.45
2018-03-22T19:35:31.038Z,20.30
2018-03-22T19:37:57.634Z,24.75
2018-03-22T19:40:24.344Z,20.83
2018-03-22T19:42:50.949Z,22.42
2018-03-22T19:45:18.646Z,23.67
2018-03-22T19:47:45.257Z,18.87
2018-03-22T19:50:11.858Z,24.58
2018-03-22T19:52:38.454Z,18.30
2018-03-22T19:55:05.988Z,14.07
2018-03-22T19:57:32.601Z,21.20
2018-03-22T19:59:59.198Z,22.65
2018-03-22T20:02:25.903Z,18.35
2018-03-22T20:04:52.457Z,19.75
2018-03-22T20:07:19.050Z,19.20
2018-03-22T20:09:45.683Z,33.83
2018-03-22T20:12:12.282Z,21.15
2018-03-22T20:14:38.896Z,22.20
2018-03-22T20:17:05.494Z,22.35
2018-03-22T20:19:32.094Z,25.83
2018-03-22T20:21:58.694Z,27.25
2018-03-22T20:24:25.313Z,24.00
2018-03-22T20:26:51.901Z,34.45
2018-03-22T20:29:18.529Z,29.73
2018-03-22T20:31:45.135Z,31.20
2018-03-22T20:34:12.060Z,20.80
2018-03-22T20:36:38.672Z,27.37
2018-03-22T20:39:05.992Z,26.05
2018-03-22T20:41:32.608Z,35.72
2018-03-22T20:43:59.241Z,39.47
2018-03-22T20:46:25.839Z,41.83
2018-03-22T20:48:52.449Z,28.02
2018-03-22T20:51:19.042Z,36.45
2018-03-22T20:53:45.689Z,31.12
2018-03-22T20:56:12.276Z,24.17
2018-03-22T20:58:38.882Z,25.40
2018-03-22T21:01:05.490Z,17.98
2018-03-22T21:03:32.098Z,21.50
2018-03-22T21:05:58.705Z,18.87
2018-03-22T21:08:25.312Z,23.87
2018-03-22T21:10:51.921Z,24.00
2018-03-22T21:13:18.520Z,21.52
2018-03-22T21:15:45.143Z,18.85
2018-03-22T21:18:11.752Z,22.80
2018-03-22T21:20:38.352Z,21.70
2018-03-22T21:23:04.956Z,24.05
2018-03-22T21:25:31.551Z,26.23
2018-03-22T21:27:58.165Z,38.78
2018-03-22T21:30:24.775Z,27.77
2018-03-22T21:32:51.381Z,33.13
2018-03-22T21:35:18.137Z,30.52
2018-03-22T21:37:44.742Z,38.90
2018-03-22T21:40:11.349Z,27.05
2018-03-22T21:42:37.960Z,41.30
2018-03-22T21:45:04.591Z,37.10
2018-03-22T21:47:31.873Z,35.67
2018-03-22T21:49:58.473Z,27.98
2018-03-22T21:52:31.006Z,36.10
2018-03-22T21:54:57.638Z,27.25
2018-03-22T21:57:24.266Z,31.05
2018-03-22T21:59:50.854Z,32.60
2018-03-22T22:02:18.327Z,38.03
2018-03-22T22:04:44.942Z,33.60
2018-03-22T22:07:11.562Z,23.08
2018-03-22T22:09:38.169Z,28.80
2018-03-22T22:12:04.785Z,34.78
2018-03-22T22:14:31.400Z,37.97
2018-03-22T22:16:58.003Z,33.42
2018-03-22T22:19:24.610Z,37.78
2018-03-22T22:21:51.225Z,36.75
2018-03-22T22:24:17.848Z,28.52
2018-03-22T22:26:44.453Z,27.15
2018-03-22T22:29:11.046Z,29.05
2018-03-22T22:31:37.681Z,31.30
2018-03-22T22:34:04.274Z,41.00
2018-03-22T22:36:30.920Z,36.60
2018-03-22T22:38:58.377Z,36.42
2018-03-22T22:41:24.967Z,36.28
2018-03-22T22:43:51.578Z,37.00
2018-03-22T22:46:18.181Z,35.17
2018-03-22T22:48:44.782Z,39.15
2018-03-22T22:51:11.373Z,28.02
2018-03-22T22:53:37.987Z,34.30
2018-03-22T22:56:04.596Z,37.65
2018-03-22T22:58:31.190Z,33.75
2018-03-22T23:00:57.782Z,45.95
2018-03-22T23:03:24.382Z,46.72
2018-03-22T23:05:50.992Z,36.60
2018-03-22T23:08:17.631Z,37.78
2018-03-22T23:10:44.240Z,30.37
2018-03-22T23:13:10.842Z,39.63
2018-03-22T23:15:37.452Z,33.78
2018-03-22T23:18:04.068Z,27.48
2018-03-22T23:20:30.662Z,31.75
2018-03-22T23:22:57.272Z,38.42
2018-03-22T23:25:23.870Z,36.90
2018-03-22T23:27:50.473Z,28.25
2018-03-22T23:30:17.070Z,34.03
2018-03-22T23:32:43.692Z,27.13
2018-03-22T23:35:10.285Z,35.78
2018-03-22T23:37:36.960Z,32.80
2018-03-22T23:40:03.568Z,35.67
2018-03-22T23:42:30.163Z,27.37
2018-03-22T23:44:56.833Z,29.35
2018-03-22T23:47:23.444Z,29.65
2018-03-22T23:49:50.038Z,31.45
2018-03-22T23:52:16.637Z,36.30
2018-03-22T23:54:43.276Z,31.37
2018-03-22T23:57:09.892Z,37.80
2018-03-22T23:59:36.548Z,29.90
